Terminal Aerodrome Forecast
Issued by NWS Twin Cities, MN

Home | Current Version | Previous Version | Text Only | Print | Product List | Glossary Off
Versions: 1 2 3 4 5 6 7 8 9 10 11 12 13 14 15 16 17 18 19 20

054
FTUS43 KMPX 161738
TAFEAU
TAF
KEAU 161738Z 1618/1718 09004KT 6SM BR SCT020 OVC250
     FM162200 08004KT 5SM -FZRA BR OVC015
     FM170100 07003KT 2SM -FZRASN BR OVC008
     FM170500 04003KT 1 1/2SM -SN BR OVC004
     FM170900 02003KT 2SM BR OVC005
     FM171600 31005KT 5SM BR BKN012=

USA.gov is the U.S. government's official web portal to all federal, state and local government web resources and services.